createdAt,value
2018-10-21T00:01:18.324Z,10.70
2018-10-21T00:03:47.023Z,10.70
2018-10-21T00:06:15.707Z,10.70
2018-10-21T00:08:45.671Z,10.70
2018-10-21T00:11:14.976Z,10.70
2018-10-21T00:13:43.657Z,10.60
2018-10-21T00:16:12.426Z,10.60
2018-10-21T00:18:41.255Z,10.50
2018-10-21T00:21:10.130Z,10.50
2018-10-21T00:23:38.826Z,10.50
2018-10-21T00:26:07.549Z,10.50
2018-10-21T00:28:36.498Z,10.60
2018-10-21T00:31:05.638Z,10.50
2018-10-21T00:33:34.675Z,10.50
2018-10-21T00:36:03.486Z,10.50
2018-10-21T00:38:32.234Z,10.60
2018-10-21T00:41:00.997Z,10.50
2018-10-21T00:43:29.852Z,10.60
2018-10-21T00:45:58.538Z,10.50
2018-10-21T00:48:27.543Z,10.50
2018-10-21T00:50:56.306Z,10.50
2018-10-21T00:53:24.970Z,10.50
2018-10-21T00:55:54.027Z,10.50
2018-10-21T00:58:22.769Z,10.50
2018-10-21T01:00:51.516Z,10.50
2018-10-21T01:03:20.383Z,10.50
2018-10-21T01:05:49.094Z,10.50
2018-10-21T01:08:17.807Z,10.40
2018-10-21T01:10:46.577Z,10.50
2018-10-21T01:13:15.211Z,10.50
2018-10-21T01:15:43.943Z,10.50
2018-10-21T01:18:12.671Z,10.50
2018-10-21T01:20:41.441Z,10.40
2018-10-21T01:23:10.150Z,10.40
2018-10-21T01:25:38.892Z,10.40
2018-10-21T01:28:07.654Z,10.40
2018-10-21T01:30:37.694Z,10.50
2018-10-21T01:33:06.740Z,10.40
2018-10-21T01:35:35.397Z,10.40
2018-10-21T01:38:04.178Z,10.30
2018-10-21T01:40:34.250Z,10.30
2018-10-21T01:43:03.242Z,10.40
2018-10-21T01:45:32.011Z,10.40
2018-10-21T01:48:01.839Z,10.40
2018-10-21T01:50:30.565Z,10.40
2018-10-21T01:53:00.452Z,10.40
2018-10-21T01:55:29.161Z,10.40
2018-10-21T01:57:58.439Z,10.40
2018-10-21T02:00:27.791Z,10.40
2018-10-21T02:02:57.000Z,10.40
2018-10-21T02:05:25.775Z,10.40
2018-10-21T02:07:54.731Z,10.40
2018-10-21T02:10:23.572Z,10.50
2018-10-21T02:12:52.352Z,10.40
2018-10-21T02:15:21.123Z,10.50
2018-10-21T02:17:49.916Z,10.50
2018-10-21T02:20:19.211Z,10.50
2018-10-21T02:22:48.375Z,10.50
2018-10-21T02:25:17.148Z,10.40
2018-10-21T02:27:46.517Z,10.40
2018-10-21T02:30:20.069Z,10.40
2018-10-21T02:32:49.470Z,10.40
2018-10-21T02:35:18.802Z,10.40
2018-10-21T02:37:47.907Z,10.40
2018-10-21T02:41:36.327Z,10.40
2018-10-21T02:44:06.175Z,10.30
2018-10-21T02:46:35.329Z,10.40
2018-10-21T02:49:04.814Z,10.40
2018-10-21T02:51:33.587Z,10.40
2018-10-21T02:54:02.313Z,10.40
2018-10-21T02:56:31.035Z,10.40
2018-10-21T02:58:59.733Z,10.40
2018-10-21T03:01:28.481Z,10.40
2018-10-21T03:03:57.172Z,10.40
2018-10-21T03:06:25.949Z,10.40
2018-10-21T03:08:54.891Z,10.40
2018-10-21T03:11:23.589Z,10.40
2018-10-21T03:13:52.344Z,10.40
2018-10-21T03:16:21.108Z,10.40
2018-10-21T03:18:49.976Z,10.40
2018-10-21T03:21:18.739Z,10.40
2018-10-21T03:23:47.427Z,10.40
2018-10-21T03:26:16.341Z,10.40
2018-10-21T03:28:45.151Z,10.50
2018-10-21T03:31:13.847Z,10.40
2018-10-21T03:33:42.740Z,10.50
2018-10-21T03:36:11.479Z,10.50
2018-10-21T03:38:40.127Z,10.40
2018-10-21T03:41:08.870Z,10.50
2018-10-21T03:43:37.579Z,10.50
2018-10-21T03:46:06.387Z,10.50
2018-10-21T03:48:35.107Z,10.50
2018-10-21T03:51:03.870Z,10.50
2018-10-21T03:53:32.551Z,10.60
2018-10-21T03:56:02.168Z,10.50
2018-10-21T03:58:30.915Z,10.60
2018-10-21T04:00:59.615Z,10.50
2018-10-21T04:03:28.964Z,10.50
2018-10-21T04:05:57.624Z,10.60
2018-10-21T04:08:26.328Z,10.60
2018-10-21T04:10:55.022Z,10.60
2018-10-21T04:13:23.684Z,10.60
2018-10-21T04:15:52.462Z,10.60
2018-10-21T04:18:21.288Z,10.60
2018-10-21T04:20:49.954Z,10.60
2018-10-21T04:23:18.600Z,10.60
2018-10-21T04:25:47.288Z,10.60
2018-10-21T04:28:16.098Z,10.60
2018-10-21T04:30:44.707Z,10.60
2018-10-21T04:33:18.762Z,10.60
2018-10-21T04:35:47.451Z,10.60
2018-10-21T04:38:30.359Z,10.60
2018-10-21T04:40:59.105Z,10.60
2018-10-21T04:43:27.857Z,10.60
2018-10-21T04:45:56.536Z,10.60
2018-10-21T04:48:25.224Z,10.60
2018-10-21T04:50:54.118Z,10.60
2018-10-21T04:53:22.968Z,10.60
2018-10-21T04:55:51.630Z,10.60
2018-10-21T04:58:20.495Z,10.70
2018-10-21T05:00:49.241Z,10.60
2018-10-21T05:03:18.127Z,10.70
2018-10-21T05:05:46.792Z,10.60
2018-10-21T05:08:15.448Z,10.70
2018-10-21T05:10:44.179Z,10.60
2018-10-21T05:13:12.916Z,10.60
2018-10-21T05:15:41.570Z,10.60
2018-10-21T05:18:10.265Z,10.70
2018-10-21T05:20:38.937Z,10.70
2018-10-21T05:23:07.651Z,10.70
2018-10-21T05:25:36.322Z,10.70
2018-10-21T05:28:05.122Z,10.60
2018-10-21T05:30:33.911Z,10.60
2018-10-21T05:33:02.585Z,10.60
2018-10-21T05:35:31.461Z,10.70
2018-10-21T05:38:00.381Z,10.60
2018-10-21T05:40:29.122Z,10.60
2018-10-21T05:42:58.046Z,10.70
2018-10-21T05:45:26.794Z,10.60
2018-10-21T05:47:55.784Z,10.60
2018-10-21T05:50:24.506Z,10.70
2018-10-21T05:52:53.192Z,10.70
2018-10-21T05:55:22.049Z,10.70
2018-10-21T05:57:50.719Z,10.70
2018-10-21T06:00:20.425Z,10.70
2018-10-21T06:02:49.468Z,10.60
2018-10-21T06:05:41.839Z,10.60
2018-10-21T06:08:10.967Z,10.70
2018-10-21T06:10:39.887Z,10.70
2018-10-21T06:13:08.753Z,10.70
2018-10-21T06:15:37.464Z,10.70
2018-10-21T06:18:08.722Z,10.70
2018-10-21T06:20:39.860Z,10.70
2018-10-21T06:23:08.543Z,10.70
2018-10-21T06:25:37.246Z,10.70
2018-10-21T06:28:06.416Z,10.70
2018-10-21T06:30:35.318Z,10.70
2018-10-21T06:33:04.234Z,10.70
2018-10-21T06:35:33.081Z,10.70
2018-10-21T06:38:01.769Z,10.70
2018-10-21T06:40:30.479Z,10.70
2018-10-21T06:42:59.246Z,10.70
2018-10-21T06:45:28.170Z,10.80
2018-10-21T06:47:56.920Z,10.80
2018-10-21T06:50:25.787Z,10.80
2018-10-21T06:52:54.497Z,10.80
2018-10-21T06:55:23.141Z,10.80
2018-10-21T06:57:51.865Z,10.80
2018-10-21T07:00:20.551Z,10.90
2018-10-21T07:02:49.355Z,10.90
2018-10-21T07:05:29.405Z,10.90
2018-10-21T07:07:58.077Z,10.90
2018-10-21T07:10:26.798Z,10.90
2018-10-21T07:12:55.446Z,10.90
2018-10-21T07:15:24.174Z,11.00
2018-10-21T07:17:53.124Z,11.00
2018-10-21T07:20:21.999Z,11.10
2018-10-21T07:22:50.729Z,11.10
2018-10-21T07:25:19.654Z,11.10
2018-10-21T07:27:48.547Z,11.10
2018-10-21T07:30:17.471Z,11.10
2018-10-21T07:32:46.240Z,11.10
2018-10-21T07:35:15.300Z,11.20
2018-10-21T07:37:44.577Z,11.20
2018-10-21T07:40:14.288Z,11.20
2018-10-21T07:42:43.498Z,11.30
2018-10-21T07:45:12.533Z,11.30
2018-10-21T07:47:41.287Z,11.30
2018-10-21T07:50:10.107Z,11.30
2018-10-21T07:52:38.827Z,11.30
2018-10-21T07:55:07.567Z,11.40
2018-10-21T07:57:36.248Z,11.40
2018-10-21T08:00:05.517Z,11.50
2018-10-21T08:02:34.259Z,11.50
2018-10-21T08:05:03.206Z,11.50
2018-10-21T08:07:43.026Z,11.60
2018-10-21T08:10:11.947Z,11.60
2018-10-21T08:12:40.718Z,11.60
2018-10-21T08:15:09.495Z,11.70
2018-10-21T08:17:38.195Z,11.70
2018-10-21T08:20:07.466Z,11.70
2018-10-21T08:22:36.301Z,11.70
2018-10-21T08:25:05.313Z,11.70
2018-10-21T08:27:34.126Z,11.70
2018-10-21T08:30:03.015Z,11.70
2018-10-21T08:32:31.917Z,11.70
2018-10-21T08:35:00.623Z,11.70
2018-10-21T08:37:29.554Z,11.70
2018-10-21T08:39:58.387Z,11.80
2018-10-21T08:42:27.069Z,11.80
2018-10-21T08:44:55.941Z,11.90
2018-10-21T08:47:25.221Z,11.90
2018-10-21T08:49:54.314Z,12.00
2018-10-21T08:52:23.229Z,12.00
2018-10-21T08:54:51.993Z,12.00
2018-10-21T08:57:20.728Z,12.10
2018-10-21T08:59:49.468Z,12.10
2018-10-21T09:02:18.473Z,12.20
2018-10-21T09:04:47.255Z,12.30
2018-10-21T09:07:16.049Z,12.30
2018-10-21T09:09:45.038Z,12.30
2018-10-21T09:12:13.810Z,12.40
2018-10-21T09:14:42.710Z,12.40
2018-10-21T09:17:11.542Z,12.60
2018-10-21T09:19:40.223Z,12.60
2018-10-21T09:22:09.256Z,12.60
2018-10-21T09:24:38.102Z,12.70
2018-10-21T09:27:07.236Z,12.80
2018-10-21T09:29:36.042Z,12.80
2018-10-21T09:32:04.773Z,12.90
2018-10-21T09:34:33.613Z,13.00
2018-10-21T09:37:02.348Z,13.00
2018-10-21T09:39:30.998Z,13.10
2018-10-21T09:41:59.722Z,13.10
2018-10-21T09:44:28.464Z,13.20
2018-10-21T09:46:57.164Z,13.30
2018-10-21T09:49:26.065Z,13.40
2018-10-21T09:51:54.788Z,13.50
2018-10-21T09:54:23.558Z,13.60
2018-10-21T09:56:52.228Z,13.60
2018-10-21T09:59:20.869Z,13.70
2018-10-21T10:01:54.888Z,13.70
2018-10-21T10:04:23.601Z,13.70
2018-10-21T10:06:52.534Z,13.80
2018-10-21T10:09:21.233Z,13.80
2018-10-21T10:11:50.024Z,13.80
2018-10-21T10:14:18.692Z,13.90
2018-10-21T10:16:47.534Z,13.90
2018-10-21T10:19:16.229Z,14.00
2018-10-21T10:21:44.897Z,14.00
2018-10-21T10:24:13.729Z,14.00
2018-10-21T10:26:42.611Z,14.10
2018-10-21T10:29:11.272Z,14.20
2018-10-21T10:31:40.162Z,14.20
2018-10-21T10:34:08.941Z,14.20
2018-10-21T10:36:37.525Z,14.30
2018-10-21T10:39:09.069Z,14.30
2018-10-21T10:41:38.246Z,14.30
2018-10-21T10:44:06.919Z,14.30
2018-10-21T10:46:35.635Z,14.40
2018-10-21T10:49:04.575Z,14.40
2018-10-21T10:51:33.371Z,14.50
2018-10-21T10:54:02.078Z,14.50
2018-10-21T10:56:30.913Z,14.50
2018-10-21T10:58:59.557Z,14.50
2018-10-21T11:01:28.260Z,14.60
2018-10-21T11:03:57.066Z,14.70
2018-10-21T11:06:26.032Z,14.70
2018-10-21T11:08:54.982Z,14.80
2018-10-21T11:11:23.701Z,14.90
2018-10-21T11:13:52.374Z,14.90
2018-10-21T11:16:21.205Z,14.90
2018-10-21T11:18:50.258Z,15.00
2018-10-21T11:21:18.956Z,15.00
2018-10-21T11:23:47.890Z,15.10
2018-10-21T11:26:16.545Z,15.10
2018-10-21T11:28:45.389Z,15.20
2018-10-21T11:31:14.544Z,15.20
2018-10-21T11:33:43.217Z,15.30
2018-10-21T11:36:11.945Z,15.40
2018-10-21T11:38:40.669Z,15.50
2018-10-21T11:41:09.343Z,15.50
2018-10-21T11:43:38.283Z,15.50
2018-10-21T11:46:07.399Z,15.60
2018-10-21T11:48:36.062Z,15.60
2018-10-21T11:51:04.780Z,15.70
2018-10-21T11:53:33.554Z,15.70
2018-10-21T11:56:02.292Z,15.80
2018-10-21T11:58:31.114Z,15.80
2018-10-21T12:01:00.094Z,15.70
2018-10-21T12:03:28.836Z,15.80
2018-10-21T12:05:57.563Z,15.90
2018-10-21T12:08:26.280Z,15.90
2018-10-21T12:10:54.983Z,16.00
2018-10-21T12:13:23.881Z,16.10
2018-10-21T12:15:52.583Z,16.10
2018-10-21T12:18:21.489Z,16.10
2018-10-21T12:20:50.201Z,16.10
2018-10-21T12:23:19.004Z,16.00
2018-10-21T12:25:47.692Z,16.00
2018-10-21T12:28:16.512Z,15.90
2018-10-21T12:30:45.208Z,15.80
2018-10-21T12:33:13.963Z,15.90
2018-10-21T12:35:42.609Z,16.00
2018-10-21T12:38:11.306Z,16.00
2018-10-21T12:40:40.068Z,16.00
2018-10-21T12:43:09.075Z,16.10
2018-10-21T12:45:37.942Z,16.20
2018-10-21T12:48:06.902Z,16.50
2018-10-21T12:50:35.942Z,16.60
2018-10-21T12:53:05.406Z,16.70
2018-10-21T12:55:38.072Z,16.70
2018-10-21T12:58:07.014Z,16.70
2018-10-21T13:00:35.856Z,16.60
2018-10-21T13:03:04.582Z,16.60
2018-10-21T13:05:33.349Z,16.70
2018-10-21T13:08:02.198Z,16.80
2018-10-21T13:10:30.871Z,17.00
2018-10-21T13:12:59.852Z,17.10
2018-10-21T13:15:28.427Z,17.20
2018-10-21T13:17:57.097Z,17.20
2018-10-21T13:20:25.795Z,17.20
2018-10-21T13:22:54.545Z,17.10
2018-10-21T13:25:23.228Z,17.20
2018-10-21T13:27:51.935Z,17.40
2018-10-21T13:30:20.741Z,17.50
2018-10-21T13:32:49.872Z,17.60
2018-10-21T13:35:18.861Z,17.50
2018-10-21T13:37:47.707Z,17.40
2018-10-21T13:40:16.509Z,17.30
2018-10-21T13:42:45.178Z,17.30
2018-10-21T13:45:13.864Z,17.20
2018-10-21T13:47:42.624Z,17.00
2018-10-21T13:50:11.347Z,16.90
2018-10-21T13:52:40.059Z,16.90
2018-10-21T13:55:09.439Z,16.80
2018-10-21T13:57:38.257Z,16.60
2018-10-21T14:00:07.795Z,16.50
2018-10-21T14:02:36.516Z,16.40
2018-10-21T14:05:06.165Z,16.30
2018-10-21T14:07:35.189Z,16.30
2018-10-21T14:10:04.156Z,16.20
2018-10-21T14:12:32.861Z,16.20
2018-10-21T14:15:01.644Z,16.20
2018-10-21T14:17:30.335Z,16.20
2018-10-21T14:19:58.983Z,16.10
2018-10-21T14:22:27.784Z,16.10
2018-10-21T14:24:56.601Z,16.00
2018-10-21T14:27:25.335Z,15.90
2018-10-21T14:29:54.092Z,15.90
2018-10-21T14:32:22.834Z,15.90
2018-10-21T14:34:51.919Z,15.90
2018-10-21T14:37:20.796Z,15.80
2018-10-21T14:39:49.747Z,15.70
2018-10-21T14:42:18.583Z,15.70
2018-10-21T14:44:47.262Z,15.70
2018-10-21T14:47:16.020Z,15.70
2018-10-21T14:49:44.851Z,15.60
2018-10-21T14:52:13.637Z,15.60
2018-10-21T14:54:42.360Z,15.60
2018-10-21T14:57:11.224Z,15.60
2018-10-21T14:59:39.977Z,15.60
2018-10-21T15:02:08.917Z,15.60
2018-10-21T15:04:37.755Z,15.50
2018-10-21T15:07:06.819Z,15.50
2018-10-21T15:09:35.738Z,15.40
2018-10-21T15:12:04.741Z,15.40
2018-10-21T15:14:33.715Z,15.40
2018-10-21T15:17:02.707Z,15.40
2018-10-21T15:19:31.850Z,15.30
2018-10-21T15:22:00.609Z,15.20
2018-10-21T15:24:29.456Z,15.20
2018-10-21T15:26:58.159Z,15.20
2018-10-21T15:29:26.888Z,15.20
2018-10-21T15:31:55.755Z,15.10
2018-10-21T15:34:24.552Z,15.10
2018-10-21T15:36:53.280Z,15.10
2018-10-21T15:39:22.004Z,15.00
2018-10-21T15:41:50.938Z,15.00
2018-10-21T15:44:19.802Z,15.00
2018-10-21T15:46:48.530Z,15.00
2018-10-21T15:49:17.227Z,15.00
2018-10-21T15:51:46.046Z,14.90
2018-10-21T15:54:14.747Z,14.90
2018-10-21T15:56:43.559Z,14.80
2018-10-21T15:59:12.307Z,14.80
2018-10-21T16:01:41.057Z,14.80
2018-10-21T16:04:09.820Z,14.80
2018-10-21T16:06:38.713Z,14.80
2018-10-21T16:09:10.141Z,14.70
2018-10-21T16:11:38.865Z,14.70
2018-10-21T16:14:07.734Z,14.70
2018-10-21T16:16:36.408Z,14.70
2018-10-21T16:19:05.221Z,14.70
2018-10-21T16:21:33.958Z,14.60
2018-10-21T16:24:02.664Z,14.60
2018-10-21T16:26:31.380Z,14.50
2018-10-21T16:29:00.102Z,14.50
2018-10-21T16:31:28.886Z,14.50
2018-10-21T16:33:57.753Z,14.40
2018-10-21T16:36:26.429Z,14.40
2018-10-21T16:38:55.527Z,14.30
2018-10-21T16:41:29.353Z,14.30
2018-10-21T16:43:58.074Z,14.20
2018-10-21T16:46:26.813Z,14.20
2018-10-21T16:48:55.479Z,14.20
2018-10-21T16:51:24.276Z,14.20
2018-10-21T16:53:52.941Z,14.10
2018-10-21T16:56:21.729Z,14.10
2018-10-21T16:58:50.411Z,14.00
2018-10-21T17:01:19.093Z,13.90
2018-10-21T17:03:47.934Z,14.00
2018-10-21T17:06:16.583Z,13.90
2018-10-21T17:08:45.461Z,13.90
2018-10-21T17:11:14.167Z,13.80
2018-10-21T17:13:42.872Z,13.80
2018-10-21T17:16:11.705Z,13.70
2018-10-21T17:18:40.460Z,13.70
2018-10-21T17:21:09.314Z,13.70
2018-10-21T17:23:38.022Z,13.70
2018-10-21T17:26:06.765Z,13.60
2018-10-21T17:28:35.784Z,13.60
2018-10-21T17:31:04.717Z,13.50
2018-10-21T17:33:33.497Z,13.50
2018-10-21T17:36:02.289Z,13.50
2018-10-21T17:38:31.093Z,13.40
2018-10-21T17:41:00.037Z,13.40
2018-10-21T17:43:29.025Z,13.40
2018-10-21T17:45:58.044Z,13.40
2018-10-21T17:48:27.049Z,13.30
2018-10-21T17:50:55.953Z,13.30
2018-10-21T17:53:25.011Z,13.20
2018-10-21T17:55:53.749Z,13.20
2018-10-21T17:58:22.624Z,13.20
2018-10-21T18:00:51.473Z,13.10
2018-10-21T18:03:20.270Z,13.10
2018-10-21T18:05:49.201Z,13.10
2018-10-21T18:08:18.604Z,13.00
2018-10-21T18:10:47.347Z,13.00
2018-10-21T18:13:16.257Z,13.00
2018-10-21T18:15:45.152Z,13.00
2018-10-21T18:18:13.894Z,12.90
2018-10-21T18:20:42.691Z,12.90
2018-10-21T18:23:11.509Z,12.90
2018-10-21T18:25:40.450Z,12.80
2018-10-21T18:28:09.172Z,12.80
2018-10-21T18:30:37.932Z,12.70
2018-10-21T18:33:06.726Z,12.70
2018-10-21T18:35:35.658Z,12.80
2018-10-21T18:38:04.415Z,12.70
2018-10-21T18:40:33.455Z,12.70
2018-10-21T18:43:02.234Z,12.70
2018-10-21T18:45:30.985Z,12.60
2018-10-21T18:47:59.996Z,12.60
2018-10-21T18:50:28.855Z,12.60
2018-10-21T18:52:57.570Z,12.60
2018-10-21T18:55:26.397Z,12.50
2018-10-21T18:57:55.211Z,12.50
2018-10-21T19:00:24.442Z,12.50
2018-10-21T19:02:53.253Z,12.40
2018-10-21T19:05:22.114Z,12.40
2018-10-21T19:07:50.961Z,12.40
2018-10-21T19:10:21.588Z,12.40
2018-10-21T19:13:00.048Z,12.40
2018-10-21T19:15:19.351Z,12.40
2018-10-21T19:17:48.144Z,12.30
2018-10-21T19:20:17.619Z,12.40
2018-10-21T19:22:46.386Z,12.40
2018-10-21T19:25:16.131Z,12.30
2018-10-21T19:27:45.684Z,12.30
2018-10-21T19:30:15.058Z,12.30
2018-10-21T19:32:44.145Z,12.30
2018-10-21T19:35:13.863Z,12.30
2018-10-21T19:37:42.660Z,12.30
2018-10-21T19:40:12.900Z,12.30
2018-10-21T19:42:42.127Z,12.30
2018-10-21T19:45:12.040Z,12.40
2018-10-21T19:47:41.344Z,12.50
2018-10-21T19:50:12.014Z,12.50
2018-10-21T19:52:41.768Z,12.40
2018-10-21T19:55:10.930Z,12.50
2018-10-21T19:57:39.676Z,12.40
2018-10-21T20:00:10.620Z,12.40
2018-10-21T20:02:39.314Z,12.40
2018-10-21T20:05:08.724Z,12.40
2018-10-21T20:07:37.484Z,12.50
2018-10-21T20:10:08.162Z,12.40
2018-10-21T20:12:37.502Z,12.40
2018-10-21T20:15:07.566Z,12.40
2018-10-21T20:17:36.336Z,12.40
2018-10-21T20:20:06.000Z,12.50
2018-10-21T20:22:34.839Z,12.40
2018-10-21T20:25:03.967Z,12.40
2018-10-21T20:27:32.778Z,12.40
2018-10-21T20:30:01.545Z,12.40
2018-10-21T20:32:30.643Z,12.40
2018-10-21T20:34:59.346Z,12.40
2018-10-21T20:37:28.342Z,12.40
2018-10-21T20:39:57.173Z,12.40
2018-10-21T20:42:26.066Z,12.50
2018-10-21T20:44:55.833Z,12.50
2018-10-21T20:47:24.606Z,12.50
2018-10-21T20:49:53.372Z,12.40
2018-10-21T20:52:22.487Z,12.40
2018-10-21T20:54:51.310Z,12.40
2018-10-21T20:57:20.150Z,12.40
2018-10-21T20:59:48.879Z,12.40
2018-10-21T21:02:17.781Z,12.40
2018-10-21T21:04:46.521Z,12.40
2018-10-21T21:07:15.456Z,12.40
2018-10-21T21:09:44.281Z,12.40
2018-10-21T21:12:13.196Z,12.40
2018-10-21T21:14:42.013Z,12.40
2018-10-21T21:17:10.805Z,12.40
2018-10-21T21:19:39.677Z,12.40
2018-10-21T21:22:08.449Z,12.40
2018-10-21T21:24:37.289Z,12.40
2018-10-21T21:27:06.081Z,12.40
2018-10-21T21:29:35.096Z,12.40
2018-10-21T21:32:03.948Z,12.40
2018-10-21T21:34:32.644Z,12.40
2018-10-21T21:37:01.583Z,12.40
2018-10-21T21:39:31.444Z,12.40
2018-10-21T21:42:00.401Z,12.40
2018-10-21T21:44:29.144Z,12.40
2018-10-21T21:46:57.899Z,12.50
2018-10-21T21:49:26.607Z,12.40
2018-10-21T21:51:55.490Z,12.40
2018-10-21T21:54:24.147Z,12.40
2018-10-21T21:56:52.874Z,12.50
2018-10-21T21:59:21.710Z,12.40
2018-10-21T22:01:50.514Z,12.40
2018-10-21T22:04:19.546Z,12.40
2018-10-21T22:06:48.390Z,12.40
2018-10-21T22:09:17.177Z,12.40
2018-10-21T22:11:46.083Z,12.30
2018-10-21T22:14:14.866Z,12.30
2018-10-21T22:16:43.552Z,12.30
2018-10-21T22:19:12.297Z,12.30
2018-10-21T22:21:41.085Z,12.30
2018-10-21T22:24:10.190Z,12.20
2018-10-21T22:26:38.943Z,12.20
2018-10-21T22:29:07.853Z,12.20
2018-10-21T22:31:36.737Z,12.20
2018-10-21T22:34:05.635Z,12.10
2018-10-21T22:36:34.467Z,12.10
2018-10-21T22:39:03.787Z,12.10
2018-10-21T22:41:32.835Z,12.10
2018-10-21T22:44:01.645Z,12.10
2018-10-21T22:46:30.419Z,12.10
2018-10-21T22:48:59.142Z,12.10
2018-10-21T22:51:27.882Z,12.10
2018-10-21T22:53:56.702Z,12.10
2018-10-21T22:56:25.407Z,12.10
2018-10-21T22:58:54.259Z,12.10
2018-10-21T23:01:23.053Z,12.10
2018-10-21T23:03:51.778Z,12.10
2018-10-21T23:06:20.939Z,12.10
2018-10-21T23:08:49.821Z,12.10
2018-10-21T23:11:18.523Z,12.10
2018-10-21T23:13:47.449Z,12.10
2018-10-21T23:16:16.313Z,12.10
2018-10-21T23:18:45.011Z,12.10
2018-10-21T23:21:13.810Z,12.10
2018-10-21T23:23:42.857Z,12.10
2018-10-21T23:26:11.606Z,12.10
2018-10-21T23:28:40.372Z,12.10
2018-10-21T23:31:09.236Z,12.10
2018-10-21T23:33:38.076Z,12.10
2018-10-21T23:36:06.838Z,12.10
2018-10-21T23:38:35.536Z,12.20
2018-10-21T23:41:04.238Z,12.10
2018-10-21T23:43:33.056Z,12.20
2018-10-21T23:46:01.800Z,12.20
2018-10-21T23:48:30.518Z,12.20
2018-10-21T23:50:59.199Z,12.20
2018-10-21T23:53:27.882Z,12.20
2018-10-21T23:55:56.674Z,12.20
2018-10-21T23:58:25.364Z,12.20
